createdAt,value
2022-12-25T00:03:02.711Z,100649.09
2022-12-25T00:08:49.525Z,100645.38
2022-12-25T00:14:36.122Z,100661.22
2022-12-25T00:20:22.866Z,100642.44
2022-12-25T00:26:18.919Z,100652.34
2022-12-25T00:32:05.629Z,100642.78
2022-12-25T00:37:52.250Z,100645.25
2022-12-25T00:43:39.463Z,100644.69
2022-12-25T00:49:26.134Z,100621.06
2022-12-25T00:55:12.841Z,100613.00
2022-12-25T01:00:59.826Z,100605.72
2022-12-25T01:06:46.561Z,100611.38
2022-12-25T01:12:35.815Z,100612.41
2022-12-25T01:18:24.892Z,100603.69
2022-12-25T01:24:11.597Z,100600.59
2022-12-25T01:29:58.401Z,100598.00
2022-12-25T01:35:44.947Z,100595.88
2022-12-25T01:41:31.573Z,100608.97
2022-12-25T01:47:21.601Z,100615.84
2022-12-25T01:53:08.703Z,100629.25
2022-12-25T01:58:57.401Z,100618.47
2022-12-25T02:04:52.099Z,100618.63
2022-12-25T02:10:39.243Z,100618.09
2022-12-25T02:16:34.879Z,100603.25
2022-12-25T02:23:13.436Z,100624.44
2022-12-25T02:29:08.576Z,100640.63
2022-12-25T02:35:25.191Z,100647.16
2022-12-25T02:41:16.255Z,100663.34
2022-12-25T02:47:44.919Z,100658.69
2022-12-25T02:53:52.549Z,100648.75
2022-12-25T03:00:01.525Z,100641.94
2022-12-25T03:06:07.709Z,100627.00
2022-12-25T03:12:06.332Z,100613.56
2022-12-25T03:17:53.840Z,100619.81
2022-12-25T03:24:21.953Z,100621.66
2022-12-25T03:30:28.179Z,100606.69
2022-12-25T03:37:18.365Z,100590.25
2022-12-25T03:43:34.790Z,100566.09
2022-12-25T03:49:45.141Z,100583.56
2022-12-25T03:55:51.763Z,100584.25
2022-12-25T04:01:57.860Z,100580.31
2022-12-25T04:08:03.275Z,100558.72
2022-12-25T04:14:08.573Z,100567.84
2022-12-25T04:20:13.997Z,100569.31
2022-12-25T04:26:19.208Z,100565.88
2022-12-25T04:32:24.557Z,100555.25
2022-12-25T04:38:11.279Z,100549.50
2022-12-25T04:43:57.882Z,100544.44
2022-12-25T04:49:44.572Z,100546.81
2022-12-25T04:55:31.334Z,100544.72
2022-12-25T05:01:18.151Z,100538.28
2022-12-25T05:07:04.879Z,100542.88
2022-12-25T05:12:51.679Z,100548.81
2022-12-25T05:18:38.317Z,100534.06
2022-12-25T05:24:29.190Z,100551.09
2022-12-25T05:30:15.958Z,100555.03
2022-12-25T05:36:04.772Z,100548.44
2022-12-25T05:41:51.636Z,100543.88
2022-12-25T05:47:38.462Z,100539.53
2022-12-25T05:53:25.160Z,100537.75
2022-12-25T05:59:11.865Z,100517.59
2022-12-25T06:04:58.597Z,100505.97
2022-12-25T06:10:45.192Z,100502.13
2022-12-25T06:16:37.829Z,100491.81
2022-12-25T06:22:32.589Z,100500.00
2022-12-25T06:28:19.273Z,100513.59
2022-12-25T06:34:06.107Z,100505.13
2022-12-25T06:39:55.071Z,100502.72
2022-12-25T06:45:41.754Z,100501.44
2022-12-25T06:51:30.893Z,100490.19
2022-12-25T06:57:18.897Z,100498.19
2022-12-25T07:03:05.766Z,100487.56
2022-12-25T07:08:53.184Z,100493.16
2022-12-25T07:14:40.281Z,100484.84
2022-12-25T07:20:27.032Z,100493.56
2022-12-25T07:26:14.419Z,100490.06
2022-12-25T07:32:01.228Z,100489.69
2022-12-25T07:37:47.951Z,100496.13
2022-12-25T07:43:34.677Z,100500.28
2022-12-25T07:49:21.604Z,100508.53
2022-12-25T07:55:08.761Z,100499.50
2022-12-25T08:00:56.111Z,100478.25
2022-12-25T08:06:42.964Z,100469.63
2022-12-25T08:12:30.207Z,100463.16
2022-12-25T08:18:17.989Z,100453.94
2022-12-25T08:24:05.722Z,100453.56
2022-12-25T08:29:54.094Z,100429.56
2022-12-25T08:35:41.933Z,100420.00
2022-12-25T08:41:32.684Z,100411.69
2022-12-25T08:47:19.564Z,100423.69
2022-12-25T08:53:06.414Z,100426.94
2022-12-25T08:58:55.544Z,100431.41
2022-12-25T09:04:45.683Z,100446.00
2022-12-25T09:10:38.828Z,100446.28
2022-12-25T09:16:25.812Z,100463.06
2022-12-25T09:22:12.890Z,100459.69
2022-12-25T09:27:59.647Z,100479.44
2022-12-25T09:33:46.842Z,100481.94
2022-12-25T09:39:33.554Z,100472.91
2022-12-25T09:45:27.702Z,100492.41
2022-12-25T09:51:17.610Z,100484.91
2022-12-25T09:57:05.916Z,100486.53
2022-12-25T10:03:08.630Z,100502.09
2022-12-25T10:09:01.431Z,100501.63
2022-12-25T10:15:03.272Z,100498.28
2022-12-25T10:20:58.016Z,100511.16
2022-12-25T10:26:45.482Z,100504.38
2022-12-25T10:32:33.930Z,100498.41
2022-12-25T10:38:20.831Z,100495.69
2022-12-25T10:44:20.418Z,100503.59
2022-12-25T10:50:18.600Z,100490.28
2022-12-25T10:56:06.944Z,100478.41
2022-12-25T11:02:03.521Z,100481.94
2022-12-25T11:07:57.462Z,100478.78
2022-12-25T11:13:51.119Z,100478.25
2022-12-25T11:19:37.925Z,100472.25
2022-12-25T11:25:27.302Z,100463.09
2022-12-25T11:31:20.989Z,100463.50
2022-12-25T11:37:15.846Z,100451.22
2022-12-25T11:43:14.832Z,100468.00
2022-12-25T11:49:06.366Z,100455.06
2022-12-25T11:55:03.334Z,100454.84
2022-12-25T12:00:52.934Z,100435.00
2022-12-25T12:07:15.088Z,100430.75
2022-12-25T12:13:32.252Z,100421.09
2022-12-25T12:19:31.009Z,100411.44
2022-12-25T12:25:18.724Z,100409.06
2022-12-25T12:31:07.829Z,100400.53
2022-12-25T12:37:25.198Z,100398.97
2022-12-25T12:43:32.006Z,100396.69
2022-12-25T12:49:23.333Z,100390.13
2022-12-25T12:55:15.191Z,100390.31
2022-12-25T13:02:32.793Z,100393.66
2022-12-25T13:08:54.887Z,100394.66
2022-12-25T13:14:47.525Z,100392.28
2022-12-25T13:21:02.188Z,100390.41
2022-12-25T13:33:46.839Z,100387.75
2022-12-25T13:39:39.608Z,100381.38
2022-12-25T13:45:34.764Z,100369.00
2022-12-25T13:51:25.719Z,100377.72
2022-12-25T13:57:15.592Z,100375.38
2022-12-25T14:03:07.495Z,100379.09
2022-12-25T14:08:58.377Z,100367.41
2022-12-25T14:14:46.129Z,100357.84
2022-12-25T14:20:40.655Z,100357.47
2022-12-25T14:26:34.388Z,100353.44
2022-12-25T14:32:25.324Z,100345.94
2022-12-25T14:38:37.149Z,100360.22
2022-12-25T14:44:45.914Z,100356.41
2022-12-25T14:50:39.987Z,100345.84
2022-12-25T14:56:39.388Z,100342.31
2022-12-25T15:02:41.427Z,100345.25
2022-12-25T15:08:30.560Z,100358.91
2022-12-25T15:14:17.796Z,100358.25
2022-12-25T15:20:06.607Z,100369.63
2022-12-25T15:25:53.619Z,100367.81
2022-12-25T15:31:44.985Z,100365.06
2022-12-25T15:37:32.129Z,100376.34
2022-12-25T15:43:39.857Z,100383.75
2022-12-25T15:49:25.972Z,100389.09
2022-12-25T15:55:13.361Z,100387.31
2022-12-25T16:01:00.145Z,100375.16
2022-12-25T16:06:48.454Z,100380.34
2022-12-25T16:12:35.117Z,100381.91
2022-12-25T16:18:23.821Z,100388.94
2022-12-25T16:24:10.793Z,100388.28
2022-12-25T16:29:57.542Z,100388.94
2022-12-25T16:35:45.381Z,100396.50
2022-12-25T16:41:32.590Z,100390.34
2022-12-25T16:47:19.322Z,100392.13
2022-12-25T16:53:07.411Z,100396.94
2022-12-25T16:58:55.108Z,100396.25
2022-12-25T17:04:43.487Z,100386.81
2022-12-25T17:10:30.389Z,100416.19
2022-12-25T17:16:26.324Z,100446.31
2022-12-25T17:22:18.021Z,100453.28
2022-12-25T17:28:08.321Z,100450.66
2022-12-25T17:34:00.769Z,100461.69
2022-12-25T17:39:49.315Z,100464.56
2022-12-25T17:45:37.149Z,100475.66
2022-12-25T17:51:26.012Z,100477.09
2022-12-25T17:57:15.837Z,100464.56
2022-12-25T18:03:10.605Z,100453.97
2022-12-25T18:08:58.227Z,100461.63
2022-12-25T18:14:44.968Z,100479.78
2022-12-25T18:20:39.429Z,100481.28
2022-12-25T18:26:28.813Z,100466.75
2022-12-25T18:32:15.800Z,100473.91
2022-12-25T18:38:02.930Z,100463.81
2022-12-25T18:43:52.683Z,100465.59
2022-12-25T18:49:42.546Z,100457.13
2022-12-25T18:55:30.646Z,100448.59
2022-12-25T19:01:22.139Z,100457.97
2022-12-25T19:07:16.309Z,100458.13
2022-12-25T19:13:04.974Z,100451.47
2022-12-25T19:18:51.963Z,100462.81
2022-12-25T19:24:40.431Z,100460.34
2022-12-25T19:30:35.409Z,100458.59
2022-12-25T19:36:27.171Z,100459.78
2022-12-25T19:42:16.503Z,100467.31
2022-12-25T19:48:07.761Z,100468.19
2022-12-25T19:53:57.783Z,100472.78
2022-12-25T19:59:44.691Z,100475.16
2022-12-25T20:05:33.410Z,100470.91
2022-12-25T20:11:29.460Z,100466.38
2022-12-25T20:17:18.650Z,100468.72
2022-12-25T20:23:06.437Z,100486.13
2022-12-25T20:28:53.466Z,100472.72
2022-12-25T20:34:40.210Z,100462.97
2022-12-25T20:40:28.260Z,100467.25
2022-12-25T20:46:15.328Z,100477.00
2022-12-25T20:52:05.444Z,100469.38
2022-12-25T20:57:52.564Z,100468.91
2022-12-25T21:03:40.294Z,100467.59
2022-12-25T21:09:27.211Z,100463.59
2022-12-25T21:15:15.867Z,100462.06
2022-12-25T21:21:06.530Z,100464.13
2022-12-25T21:27:12.844Z,100460.22
2022-12-25T21:33:30.783Z,100454.69
2022-12-25T21:39:26.510Z,100445.69
2022-12-25T21:45:13.662Z,100450.31
2022-12-25T21:51:47.260Z,100445.69
2022-12-25T21:57:42.771Z,100440.81
2022-12-25T22:04:01.547Z,100435.88
2022-12-25T22:11:05.067Z,100432.44
2022-12-25T22:23:45.267Z,100438.31
2022-12-25T22:29:38.002Z,100440.34
2022-12-25T22:35:32.709Z,100451.16
2022-12-25T22:41:25.032Z,100463.84
2022-12-25T22:47:15.509Z,100452.47
2022-12-25T22:53:04.668Z,100447.97
2022-12-25T22:58:59.035Z,100442.09
2022-12-25T23:04:46.531Z,100457.25
2022-12-25T23:10:36.342Z,100457.03
2022-12-25T23:16:23.189Z,100467.00
2022-12-25T23:22:30.555Z,100448.28
2022-12-25T23:29:42.623Z,100450.69
2022-12-25T23:36:15.692Z,100456.22
2022-12-25T23:42:02.810Z,100459.66
2022-12-25T23:47:49.551Z,100468.00
2022-12-25T23:53:36.712Z,100459.66
2022-12-25T23:59:29.327Z,100438.00
